sensor_id;sensor_type;location;lat;lon;timestamp;pressure;altitude;pressure_sealevel;temperature;humidity
58757;BME280;44527;47.460;19.016;2022-07-22T00:00:22;100337.22;;;23.69;44.14
58757;BME280;44527;47.460;19.016;2022-07-22T00:03:25;100335.41;;;23.54;44.63
58757;BME280;44527;47.460;19.016;2022-07-22T00:06:28;100340.84;;;23.61;44.46
58757;BME280;44527;47.460;19.016;2022-07-22T00:09:32;100343.72;;;23.74;44.04
58757;BME280;44527;47.460;19.016;2022-07-22T00:12:36;100346.16;;;23.69;44.40
58757;BME280;44527;47.460;19.016;2022-07-22T00:15:39;100342.78;;;23.67;44.64
58757;BME280;44527;47.460;19.016;2022-07-22T00:18:42;100339.81;;;23.62;45.41
58757;BME280;44527;47.460;19.016;2022-07-22T00:21:47;100340.03;;;23.46;45.20
58757;BME280;44527;47.460;19.016;2022-07-22T00:24:49;100339.47;;;23.35;45.36
58757;BME280;44527;47.460;19.016;2022-07-22T00:27:52;100338.53;;;23.43;45.18
58757;BME280;44527;47.460;19.016;2022-07-22T00:30:55;100335.31;;;23.33;45.48
58757;BME280;44527;47.460;19.016;2022-07-22T00:33:59;100339.94;;;23.24;45.71
58757;BME280;44527;47.460;19.016;2022-07-22T00:37:03;100341.19;;;23.13;46.26
58757;BME280;44527;47.460;19.016;2022-07-22T00:40:07;100341.19;;;23.13;46.44
58757;BME280;44527;47.460;19.016;2022-07-22T00:43:10;100340.75;;;23.10;46.17
58757;BME280;44527;47.460;19.016;2022-07-22T00:46:13;100339.47;;;23.06;46.53
58757;BME280;44527;47.460;19.016;2022-07-22T00:49:17;100344.50;;;23.01;46.63
58757;BME280;44527;47.460;19.016;2022-07-22T00:52:21;100341.38;;;22.97;46.55
58757;BME280;44527;47.460;19.016;2022-07-22T00:55:24;100335.53;;;22.93;46.17
58757;BME280;44527;47.460;19.016;2022-07-22T00:58:27;100342.22;;;22.75;47.03
58757;BME280;44527;47.460;19.016;2022-07-22T01:01:29;100350.97;;;22.68;46.55
58757;BME280;44527;47.460;19.016;2022-07-22T01:04:32;100348.31;;;22.68;46.51
58757;BME280;44527;47.460;19.016;2022-07-22T01:07:36;100355.34;;;22.61;46.55
58757;BME280;44527;47.460;19.016;2022-07-22T01:10:39;100358.59;;;22.57;46.60
58757;BME280;44527;47.460;19.016;2022-07-22T01:13:43;100351.91;;;22.53;46.83
58757;BME280;44527;47.460;19.016;2022-07-22T01:16:46;100365.63;;;22.49;47.00
58757;BME280;44527;47.460;19.016;2022-07-22T01:19:50;100359.91;;;22.38;47.35
58757;BME280;44527;47.460;19.016;2022-07-22T01:22:54;100365.59;;;22.35;47.45
58757;BME280;44527;47.460;19.016;2022-07-22T01:25:57;100359.75;;;22.31;47.35
58757;BME280;44527;47.460;19.016;2022-07-22T01:29:00;100356.25;;;22.31;47.25
58757;BME280;44527;47.460;19.016;2022-07-22T01:32:03;100352.75;;;22.30;47.26
58757;BME280;44527;47.460;19.016;2022-07-22T01:35:06;100356.00;;;22.40;46.61
58757;BME280;44527;47.460;19.016;2022-07-22T01:38:08;100348.97;;;22.47;46.11
58757;BME280;44527;47.460;19.016;2022-07-22T01:41:11;100351.31;;;22.42;46.28
58757;BME280;44527;47.460;19.016;2022-07-22T01:44:13;100341.81;;;22.40;46.47
58757;BME280;44527;47.460;19.016;2022-07-22T01:47:16;100346.81;;;22.43;46.12
58757;BME280;44527;47.460;19.016;2022-07-22T01:50:18;100353.88;;;22.36;46.16
58757;BME280;44527;47.460;19.016;2022-07-22T01:53:22;100350.03;;;22.38;46.32
58757;BME280;44527;47.460;19.016;2022-07-22T01:56:26;100349.47;;;22.43;45.78
58757;BME280;44527;47.460;19.016;2022-07-22T01:59:28;100350.03;;;22.38;46.39
58757;BME280;44527;47.460;19.016;2022-07-22T02:02:32;100348.34;;;22.37;46.43
58757;BME280;44527;47.460;19.016;2022-07-22T02:05:34;100349.37;;;22.36;46.27
58757;BME280;44527;47.460;19.016;2022-07-22T02:08:39;100354.06;;;22.34;45.78
58757;BME280;44527;47.460;19.016;2022-07-22T02:11:43;100346.94;;;22.27;47.44
58757;BME280;44527;47.460;19.016;2022-07-22T02:14:46;100342.97;;;22.14;47.31
58757;BME280;44527;47.460;19.016;2022-07-22T02:17:49;100355.78;;;22.27;48.10
58757;BME280;44527;47.460;19.016;2022-07-22T02:20:51;100353.56;;;21.99;48.51
58757;BME280;44527;47.460;19.016;2022-07-22T02:23:56;100358.87;;;22.08;47.36
58757;BME280;44527;47.460;19.016;2022-07-22T02:26:58;100361.72;;;22.06;46.42
58757;BME280;44527;47.460;19.016;2022-07-22T02:30:01;100368.75;;;22.07;45.92
58757;BME280;44527;47.460;19.016;2022-07-22T02:33:03;100376.56;;;22.09;45.45
58757;BME280;44527;47.460;19.016;2022-07-22T02:36:06;100377.41;;;22.09;45.40
58757;BME280;44527;47.460;19.016;2022-07-22T02:39:09;100375.06;;;22.06;45.23
58757;BME280;44527;47.460;19.016;2022-07-22T02:42:12;100372.25;;;22.08;44.87
58757;BME280;44527;47.460;19.016;2022-07-22T02:45:18;100380.25;;;22.08;44.50
58757;BME280;44527;47.460;19.016;2022-07-22T02:48:21;100373.41;;;22.05;44.58
58757;BME280;44527;47.460;19.016;2022-07-22T02:51:23;100376.56;;;22.09;44.28
58757;BME280;44527;47.460;19.016;2022-07-22T02:54:26;100371.06;;;22.10;44.53
58757;BME280;44527;47.460;19.016;2022-07-22T02:57:29;100377.59;;;22.08;44.83
58757;BME280;44527;47.460;19.016;2022-07-22T03:00:31;100377.53;;;22.16;45.48
58757;BME280;44527;47.460;19.016;2022-07-22T03:03:34;100372.47;;;21.98;45.93
58757;BME280;44527;47.460;19.016;2022-07-22T03:06:39;100382.87;;;21.85;46.33
58757;BME280;44527;47.460;19.016;2022-07-22T03:09:41;100378.19;;;21.87;46.35
58757;BME280;44527;47.460;19.016;2022-07-22T03:12:44;100378.19;;;21.87;46.51
58757;BME280;44527;47.460;19.016;2022-07-22T03:15:46;100385.25;;;21.79;46.55
58757;BME280;44527;47.460;19.016;2022-07-22T03:18:50;100373.78;;;21.63;46.16
58757;BME280;44527;47.460;19.016;2022-07-22T03:21:52;100382.75;;;21.70;45.95
58757;BME280;44527;47.460;19.016;2022-07-22T03:24:56;100380.75;;;21.72;45.40
58757;BME280;44527;47.460;19.016;2022-07-22T03:27:59;100377.25;;;21.71;45.19
58757;BME280;44527;47.460;19.016;2022-07-22T03:31:01;100384.72;;;21.76;44.88
58757;BME280;44527;47.460;19.016;2022-07-22T03:34:04;100393.91;;;21.82;44.44
58757;BME280;44527;47.460;19.016;2022-07-22T03:37:07;100388.88;;;21.87;44.31
58757;BME280;44527;47.460;19.016;2022-07-22T03:40:11;100396.19;;;21.93;44.03
58757;BME280;44527;47.460;19.016;2022-07-22T03:43:14;100397.34;;;21.98;43.89
58757;BME280;44527;47.460;19.016;2022-07-22T03:46:18;100400.97;;;22.06;44.09
58757;BME280;44527;47.460;19.016;2022-07-22T03:49:22;100403.31;;;22.00;44.51
58757;BME280;44527;47.460;19.016;2022-07-22T03:52:25;100396.09;;;22.09;44.37
58757;BME280;44527;47.460;19.016;2022-07-22T03:55:28;100404.03;;;22.34;44.60
58757;BME280;44527;47.460;19.016;2022-07-22T03:58:31;100400.41;;;22.27;44.63
58757;BME280;44527;47.460;19.016;2022-07-22T04:01:35;100399.66;;;22.01;44.60
58757;BME280;44527;47.460;19.016;2022-07-22T04:04:38;100399.19;;;21.98;44.49
58757;BME280;44527;47.460;19.016;2022-07-22T04:07:43;100406.81;;;22.17;44.85
58757;BME280;44527;47.460;19.016;2022-07-22T04:10:46;100410.44;;;22.24;45.71
58757;BME280;44527;47.460;19.016;2022-07-22T04:13:51;100412.38;;;22.39;46.79
58757;BME280;44527;47.460;19.016;2022-07-22T04:16:53;100402.56;;;22.54;45.75
58757;BME280;44527;47.460;19.016;2022-07-22T04:19:56;100399.34;;;22.59;44.43
58757;BME280;44527;47.460;19.016;2022-07-22T04:22:59;100399.03;;;22.77;45.18
58757;BME280;44527;47.460;19.016;2022-07-22T04:26:04;100397.38;;;22.99;44.98
58757;BME280;44527;47.460;19.016;2022-07-22T04:29:11;100399.56;;;23.18;43.57
58757;BME280;44527;47.460;19.016;2022-07-22T04:32:16;100399.31;;;23.43;42.92
58757;BME280;44527;47.460;19.016;2022-07-22T04:35:21;100403.69;;;23.73;42.67
58757;BME280;44527;47.460;19.016;2022-07-22T04:38:25;100396.19;;;23.98;42.82
58757;BME280;44527;47.460;19.016;2022-07-22T04:41:29;100400.66;;;24.27;42.71
58757;BME280;44527;47.460;19.016;2022-07-22T04:44:32;100390.44;;;24.74;41.04
58757;BME280;44527;47.460;19.016;2022-07-22T04:47:37;100397.94;;;26.11;37.68
58757;BME280;44527;47.460;19.016;2022-07-22T04:50:40;100403.72;;;28.52;32.77
58757;BME280;44527;47.460;19.016;2022-07-22T04:53:43;100399.84;;;30.64;29.44
58757;BME280;44527;47.460;19.016;2022-07-22T04:56:51;100402.59;;;31.93;27.46
58757;BME280;44527;47.460;19.016;2022-07-22T04:59:54;100408.97;;;32.90;25.95
58757;BME280;44527;47.460;19.016;2022-07-22T05:02:56;100402.31;;;34.41;24.99
58757;BME280;44527;47.460;19.016;2022-07-22T05:05:59;100412.28;;;35.64;23.59
58757;BME280;44527;47.460;19.016;2022-07-22T05:09:02;100410.63;;;36.52;22.97
58757;BME280;44527;47.460;19.016;2022-07-22T05:12:05;100414.78;;;37.00;22.58
58757;BME280;44527;47.460;19.016;2022-07-22T05:15:10;100408.88;;;38.23;21.36
58757;BME280;44527;47.460;19.016;2022-07-22T05:18:15;100418.88;;;39.46;21.04
58757;BME280;44527;47.460;19.016;2022-07-22T05:21:19;100417.25;;;39.88;20.96
58757;BME280;44527;47.460;19.016;2022-07-22T05:24:22;100421.47;;;40.23;22.81
58757;BME280;44527;47.460;19.016;2022-07-22T05:27:24;100425.84;;;40.95;20.22
58757;BME280;44527;47.460;19.016;2022-07-22T05:30:27;100429.72;;;40.61;20.83
58757;BME280;44527;47.460;19.016;2022-07-22T05:33:30;100429.53;;;40.14;20.51
58757;BME280;44527;47.460;19.016;2022-07-22T05:36:37;100431.00;;;40.07;21.05
58757;BME280;44527;47.460;19.016;2022-07-22T05:39:42;100434.81;;;40.68;20.13
58757;BME280;44527;47.460;19.016;2022-07-22T05:42:45;100439.41;;;41.65;19.33
58757;BME280;44527;47.460;19.016;2022-07-22T05:45:48;100433.50;;;42.36;18.06
58757;BME280;44527;47.460;19.016;2022-07-22T05:48:52;100435.88;;;43.67;17.70
58757;BME280;44527;47.460;19.016;2022-07-22T05:52:02;100437.47;;;44.52;16.09
58757;BME280;44527;47.460;19.016;2022-07-22T05:55:06;100445.28;;;44.76;15.71
58757;BME280;44527;47.460;19.016;2022-07-22T05:58:09;100443.81;;;44.43;16.18
58757;BME280;44527;47.460;19.016;2022-07-22T06:01:12;100446.22;;;43.13;16.13
58757;BME280;44527;47.460;19.016;2022-07-22T06:04:15;100444.63;;;42.89;16.79
58757;BME280;44527;47.460;19.016;2022-07-22T06:07:18;100444.72;;;42.62;16.80
58757;BME280;44527;47.460;19.016;2022-07-22T06:10:22;100449.88;;;42.18;16.63
58757;BME280;44527;47.460;19.016;2022-07-22T06:13:25;100448.38;;;41.71;16.90
58757;BME280;44527;47.460;19.016;2022-07-22T06:16:29;100436.75;;;40.67;16.13
58757;BME280;44527;47.460;19.016;2022-07-22T06:19:32;100450.34;;;40.58;16.69
58757;BME280;44527;47.460;19.016;2022-07-22T06:22:35;100448.78;;;40.71;17.96
58757;BME280;44527;47.460;19.016;2022-07-22T06:25:38;100452.03;;;40.92;16.58
58757;BME280;44527;47.460;19.016;2022-07-22T06:28:46;100457.41;;;41.16;16.88
58757;BME280;44527;47.460;19.016;2022-07-22T06:31:48;100455.66;;;41.67;15.03
58757;BME280;44527;47.460;19.016;2022-07-22T06:34:52;100455.44;;;42.63;13.53
58757;BME280;44527;47.460;19.016;2022-07-22T06:37:54;100455.19;;;44.85;11.86
58757;BME280;44527;47.460;19.016;2022-07-22T06:41:08;100455.75;;;47.48;9.75
58757;BME280;44527;47.460;19.016;2022-07-22T06:44:11;100452.16;;;48.24;9.15
58757;BME280;44527;47.460;19.016;2022-07-22T06:47:15;100455.56;;;46.20;9.97
58757;BME280;44527;47.460;19.016;2022-07-22T06:50:19;100452.78;;;44.40;12.42
58757;BME280;44527;47.460;19.016;2022-07-22T06:53:26;100447.66;;;43.10;13.60
58757;BME280;44527;47.460;19.016;2022-07-22T06:56:29;100449.22;;;43.65;12.50
58757;BME280;44527;47.460;19.016;2022-07-22T06:59:33;100444.78;;;44.56;11.95
58757;BME280;44527;47.460;19.016;2022-07-22T07:02:35;100446.41;;;44.22;12.26
58757;BME280;44527;47.460;19.016;2022-07-22T07:05:38;100448.06;;;44.32;12.78
58757;BME280;44527;47.460;19.016;2022-07-22T07:08:41;100445.75;;;44.25;11.82
58757;BME280;44527;47.460;19.016;2022-07-22T07:11:45;100442.09;;;43.81;12.66
58757;BME280;44527;47.460;19.016;2022-07-22T07:14:50;100435.31;;;42.63;12.32
58757;BME280;44527;47.460;19.016;2022-07-22T07:18:14;100443.59;;;41.90;13.76
58757;BME280;44527;47.460;19.016;2022-07-22T07:21:16;100446.84;;;42.06;12.67
58757;BME280;44527;47.460;19.016;2022-07-22T07:24:21;100443.59;;;43.39;12.00
58757;BME280;44527;47.460;19.016;2022-07-22T07:27:23;100443.97;;;44.21;11.47
58757;BME280;44527;47.460;19.016;2022-07-22T07:30:27;100438.75;;;44.80;10.45
58757;BME280;44527;47.460;19.016;2022-07-22T07:33:30;100440.87;;;45.69;10.30
58757;BME280;44527;47.460;19.016;2022-07-22T07:36:32;100437.16;;;45.65;10.10
58757;BME280;44527;47.460;19.016;2022-07-22T07:39:35;100443.25;;;46.08;9.68
58757;BME280;44527;47.460;19.016;2022-07-22T07:42:37;100437.28;;;45.98;10.04
58757;BME280;44527;47.460;19.016;2022-07-22T07:45:48;100442.47;;;46.29;8.91
58757;BME280;44527;47.460;19.016;2022-07-22T07:48:51;100440.47;;;45.88;9.91
58757;BME280;44527;47.460;19.016;2022-07-22T07:51:56;100440.72;;;45.95;9.41
58757;BME280;44527;47.460;19.016;2022-07-22T07:54:58;100435.22;;;45.86;9.26
58757;BME280;44527;47.460;19.016;2022-07-22T07:58:14;100437.34;;;45.59;9.44
58757;BME280;44527;47.460;19.016;2022-07-22T08:01:19;100436.38;;;45.85;9.92
58757;BME280;44527;47.460;19.016;2022-07-22T08:04:24;100437.50;;;45.93;9.67
58757;BME280;44527;47.460;19.016;2022-07-22T08:07:40;100430.56;;;44.92;9.99
58757;BME280;44527;47.460;19.016;2022-07-22T08:10:44;100421.81;;;43.95;10.76
58757;BME280;44527;47.460;19.016;2022-07-22T08:14:00;100414.41;;;43.16;11.20
58757;BME280;44527;47.460;19.016;2022-07-22T08:17:03;100417.66;;;42.86;11.67
58757;BME280;44527;47.460;19.016;2022-07-22T08:20:07;100413.59;;;41.89;11.65
58757;BME280;44527;47.460;19.016;2022-07-22T08:23:10;100416.78;;;40.24;13.10
58757;BME280;44527;47.460;19.016;2022-07-22T08:26:13;100410.69;;;40.27;13.01
58757;BME280;44527;47.460;19.016;2022-07-22T08:29:16;100405.19;;;39.89;13.50
58757;BME280;44527;47.460;19.016;2022-07-22T08:32:18;100407.78;;;39.27;13.56
58757;BME280;44527;47.460;19.016;2022-07-22T08:35:21;100404.84;;;38.94;14.34
58757;BME280;44527;47.460;19.016;2022-07-22T08:38:24;100405.34;;;38.96;14.71
58757;BME280;44527;47.460;19.016;2022-07-22T08:41:34;100406.41;;;38.66;14.86
58757;BME280;44527;47.460;19.016;2022-07-22T08:44:37;100405.22;;;38.38;15.19
58757;BME280;44527;47.460;19.016;2022-07-22T08:47:40;100399.25;;;38.31;14.96
58757;BME280;44527;47.460;19.016;2022-07-22T08:50:45;100404.72;;;38.31;14.92
58757;BME280;44527;47.460;19.016;2022-07-22T08:53:48;100400.88;;;37.82;14.98
58757;BME280;44527;47.460;19.016;2022-07-22T08:56:52;100398.16;;;37.77;14.60
58757;BME280;44527;47.460;19.016;2022-07-22T08:59:57;100398.00;;;37.53;15.31
58757;BME280;44527;47.460;19.016;2022-07-22T09:03:00;100407.06;;;37.28;15.65
58757;BME280;44527;47.460;19.016;2022-07-22T09:06:03;100404.34;;;37.23;15.17
58757;BME280;44527;47.460;19.016;2022-07-22T09:09:06;100399.44;;;36.69;15.58
58757;BME280;44527;47.460;19.016;2022-07-22T09:12:15;100401.38;;;36.73;15.75
58757;BME280;44527;47.460;19.016;2022-07-22T09:16:07;100403.56;;;36.56;16.33
58757;BME280;44527;47.460;19.016;2022-07-22T09:18:53;100388.25;;;36.60;16.13
58757;BME280;44527;47.460;19.016;2022-07-22T09:21:56;100386.84;;;36.37;16.15
58757;BME280;44527;47.460;19.016;2022-07-22T09:28:22;100382.72;;;36.19;16.25
58757;BME280;44527;47.460;19.016;2022-07-22T09:31:35;100380.78;;;36.20;16.76
58757;BME280;44527;47.460;19.016;2022-07-22T09:34:40;100380.28;;;36.28;16.23
58757;BME280;44527;47.460;19.016;2022-07-22T09:38:00;100379.44;;;36.27;15.98
58757;BME280;44527;47.460;19.016;2022-07-22T09:41:03;100372.25;;;35.96;16.55
58757;BME280;44527;47.460;19.016;2022-07-22T09:44:22;100383.44;;;35.94;18.40
58757;BME280;44527;47.460;19.016;2022-07-22T09:47:29;100380.81;;;36.25;17.75
58757;BME280;44527;47.460;19.016;2022-07-22T09:50:40;100375.38;;;36.61;18.32
58757;BME280;44527;47.460;19.016;2022-07-22T09:53:44;100371.56;;;36.56;18.01
58757;BME280;44527;47.460;19.016;2022-07-22T09:56:48;100370.19;;;36.79;18.36
58757;BME280;44527;47.460;19.016;2022-07-22T09:59:50;100368.00;;;37.07;18.37
58757;BME280;44527;47.460;19.016;2022-07-22T10:03:00;100358.59;;;37.34;18.37
58757;BME280;44527;47.460;19.016;2022-07-22T10:06:04;100362.72;;;37.31;18.08
58757;BME280;44527;47.460;19.016;2022-07-22T10:09:07;100360.88;;;37.06;18.52
58757;BME280;44527;47.460;19.016;2022-07-22T10:12:20;100355.69;;;36.89;17.78
58757;BME280;44527;47.460;19.016;2022-07-22T10:15:24;100351.31;;;36.78;18.73
58757;BME280;44527;47.460;19.016;2022-07-22T10:18:36;100352.66;;;37.11;19.54
58757;BME280;44527;47.460;19.016;2022-07-22T10:21:39;100352.87;;;37.25;19.16
58757;BME280;44527;47.460;19.016;2022-07-22T10:24:59;100342.78;;;37.15;19.38
58757;BME280;44527;47.460;19.016;2022-07-22T10:28:04;100335.31;;;37.46;18.52
58757;BME280;44527;47.460;19.016;2022-07-22T10:31:20;100339.50;;;37.23;18.41
58757;BME280;44527;47.460;19.016;2022-07-22T10:34:22;100337.62;;;36.93;17.80
58757;BME280;44527;47.460;19.016;2022-07-22T10:40:48;100332.69;;;36.90;18.56
58757;BME280;44527;47.460;19.016;2022-07-22T10:43:51;100336.31;;;36.65;18.72
58757;BME280;44527;47.460;19.016;2022-07-22T10:46:55;100327.22;;;36.90;18.57
58757;BME280;44527;47.460;19.016;2022-07-22T10:53:53;100326.97;;;37.07;18.55
58757;BME280;44527;47.460;19.016;2022-07-22T10:57:00;100320.09;;;37.10;18.29
58757;BME280;44527;47.460;19.016;2022-07-22T11:00:02;100314.06;;;37.18;17.94
58757;BME280;44527;47.460;19.016;2022-07-22T11:03:05;100312.72;;;37.10;18.39
58757;BME280;44527;47.460;19.016;2022-07-22T11:06:29;100310.44;;;37.28;18.82
58757;BME280;44527;47.460;19.016;2022-07-22T11:09:35;100312.06;;;37.39;18.45
58757;BME280;44527;47.460;19.016;2022-07-22T11:12:38;100304.38;;;37.46;18.75
58757;BME280;44527;47.460;19.016;2022-07-22T11:15:40;100282.59;;;37.15;18.46
58757;BME280;44527;47.460;19.016;2022-07-22T11:18:47;100292.97;;;37.29;19.60
58757;BME280;44527;47.460;19.016;2022-07-22T11:21:52;100299.88;;;36.90;19.77
58757;BME280;44527;47.460;19.016;2022-07-22T11:24:55;100291.03;;;37.24;20.10
58757;BME280;44527;47.460;19.016;2022-07-22T11:27:58;100296.69;;;37.43;18.27
58757;BME280;44527;47.460;19.016;2022-07-22T11:31:14;100286.22;;;37.65;18.36
58757;BME280;44527;47.460;19.016;2022-07-22T11:34:16;100284.16;;;37.86;18.28
58757;BME280;44527;47.460;19.016;2022-07-22T11:37:23;100287.72;;;37.87;17.99
58757;BME280;44527;47.460;19.016;2022-07-22T11:40:31;100284.69;;;37.93;17.86
58757;BME280;44527;47.460;19.016;2022-07-22T11:43:38;100272.53;;;37.65;18.66
58757;BME280;44527;47.460;19.016;2022-07-22T11:46:41;100273.28;;;37.71;18.08
58757;BME280;44527;47.460;19.016;2022-07-22T11:49:45;100270.28;;;37.72;18.45
58757;BME280;44527;47.460;19.016;2022-07-22T11:52:52;100267.19;;;37.84;18.96
58757;BME280;44527;47.460;19.016;2022-07-22T11:55:59;100261.97;;;37.88;18.60
58757;BME280;44527;47.460;19.016;2022-07-22T11:59:02;100253.41;;;38.00;18.42
58757;BME280;44527;47.460;19.016;2022-07-22T12:02:08;100260.56;;;37.96;19.35
58757;BME280;44527;47.460;19.016;2022-07-22T12:05:12;100252.94;;;37.87;19.09
58757;BME280;44527;47.460;19.016;2022-07-22T12:09:08;100247.50;;;37.77;19.49
58757;BME280;44527;47.460;19.016;2022-07-22T12:12:11;100240.63;;;37.85;19.27
58757;BME280;44527;47.460;19.016;2022-07-22T12:15:13;100237.97;;;37.75;19.65
58757;BME280;44527;47.460;19.016;2022-07-22T12:18:38;100243.59;;;37.93;19.38
58757;BME280;44527;47.460;19.016;2022-07-22T12:21:58;100243.47;;;38.09;19.19
58757;BME280;44527;47.460;19.016;2022-07-22T12:25:01;100235.53;;;38.07;18.56
58757;BME280;44527;47.460;19.016;2022-07-22T12:28:04;100217.91;;;37.84;17.66
58757;BME280;44527;47.460;19.016;2022-07-22T12:31:07;100219.63;;;37.70;18.06
58757;BME280;44527;47.460;19.016;2022-07-22T12:34:09;100218.31;;;38.02;18.27
58757;BME280;44527;47.460;19.016;2022-07-22T12:37:16;100224.56;;;38.07;18.34
58757;BME280;44527;47.460;19.016;2022-07-22T12:40:22;100209.53;;;38.05;19.81
58757;BME280;44527;47.460;19.016;2022-07-22T12:43:26;100205.47;;;38.02;20.24
58757;BME280;44527;47.460;19.016;2022-07-22T12:46:28;100206.84;;;38.00;19.96
58757;BME280;44527;47.460;19.016;2022-07-22T12:49:31;100202.06;;;38.10;19.61
58757;BME280;44527;47.460;19.016;2022-07-22T12:52:33;100195.75;;;38.15;19.21
58757;BME280;44527;47.460;19.016;2022-07-22T12:55:57;100203.41;;;38.18;19.09
58757;BME280;44527;47.460;19.016;2022-07-22T12:59:04;100195.16;;;38.18;18.98
58757;BME280;44527;47.460;19.016;2022-07-22T13:02:07;100189.81;;;38.32;18.83
58757;BME280;44527;47.460;19.016;2022-07-22T13:05:09;100199.97;;;38.31;18.89
58757;BME280;44527;47.460;19.016;2022-07-22T13:08:12;100186.25;;;38.31;19.46
58757;BME280;44527;47.460;19.016;2022-07-22T13:11:14;100189.97;;;38.46;19.54
58757;BME280;44527;47.460;19.016;2022-07-22T13:14:17;100178.34;;;38.54;19.29
58757;BME280;44527;47.460;19.016;2022-07-22T13:17:19;100178.84;;;38.32;19.53
58757;BME280;44527;47.460;19.016;2022-07-22T13:20:22;100181.53;;;38.08;19.75
58757;BME280;44527;47.460;19.016;2022-07-22T13:23:25;100172.81;;;37.71;19.89
58757;BME280;44527;47.460;19.016;2022-07-22T13:26:27;100167.25;;;37.82;20.32
58757;BME280;44527;47.460;19.016;2022-07-22T13:29:30;100166.19;;;37.38;20.57
58757;BME280;44527;47.460;19.016;2022-07-22T13:32:32;100162.50;;;37.09;20.81
58757;BME280;44527;47.460;19.016;2022-07-22T13:35:49;100167.22;;;36.93;21.97
58757;BME280;44527;47.460;19.016;2022-07-22T13:38:51;100166.78;;;36.70;21.75
58757;BME280;44527;47.460;19.016;2022-07-22T13:41:54;100155.34;;;36.53;21.88
58757;BME280;44527;47.460;19.016;2022-07-22T13:44:56;100150.69;;;36.43;22.16
58757;BME280;44527;47.460;19.016;2022-07-22T13:47:58;100151.44;;;36.74;21.79
58757;BME280;44527;47.460;19.016;2022-07-22T13:51:01;100145.87;;;36.95;21.60
58757;BME280;44527;47.460;19.016;2022-07-22T13:54:03;100140.94;;;37.07;22.10
58757;BME280;44527;47.460;19.016;2022-07-22T13:57:07;100139.97;;;37.27;21.02
58757;BME280;44527;47.460;19.016;2022-07-22T14:00:11;100130.78;;;37.52;20.29
58757;BME280;44527;47.460;19.016;2022-07-22T14:03:16;100138.38;;;37.65;19.14
58757;BME280;44527;47.460;19.016;2022-07-22T14:06:18;100121.94;;;37.65;18.84
58757;BME280;44527;47.460;19.016;2022-07-22T14:09:21;100130.75;;;37.57;19.38
58757;BME280;44527;47.460;19.016;2022-07-22T14:12:39;100138.28;;;37.70;19.28
58757;BME280;44527;47.460;19.016;2022-07-22T14:15:42;100129.03;;;37.66;19.19
58757;BME280;44527;47.460;19.016;2022-07-22T14:18:44;100135.44;;;37.52;19.23
58757;BME280;44527;47.460;19.016;2022-07-22T14:21:48;100131.69;;;37.37;19.37
58757;BME280;44527;47.460;19.016;2022-07-22T14:24:50;100126.81;;;37.29;19.06
58757;BME280;44527;47.460;19.016;2022-07-22T14:27:54;100121.13;;;37.20;19.30
58757;BME280;44527;47.460;19.016;2022-07-22T14:31:17;100116.72;;;37.24;19.53
58757;BME280;44527;47.460;19.016;2022-07-22T14:34:23;100120.41;;;37.05;19.93
58757;BME280;44527;47.460;19.016;2022-07-22T14:37:26;100117.69;;;36.94;19.86
58757;BME280;44527;47.460;19.016;2022-07-22T14:40:29;100123.53;;;36.83;20.32
58757;BME280;44527;47.460;19.016;2022-07-22T14:43:31;100114.87;;;36.50;21.06
58757;BME280;44527;47.460;19.016;2022-07-22T14:46:39;100112.75;;;36.21;20.85
58757;BME280;44527;47.460;19.016;2022-07-22T14:49:41;100108.94;;;35.97;21.06
58757;BME280;44527;47.460;19.016;2022-07-22T14:52:44;100107.31;;;36.06;21.43
58757;BME280;44527;47.460;19.016;2022-07-22T14:55:46;100106.25;;;35.92;21.22
58757;BME280;44527;47.460;19.016;2022-07-22T14:58:49;100104.31;;;35.92;21.33
58757;BME280;44527;47.460;19.016;2022-07-22T15:01:51;100102.41;;;35.98;21.43
58757;BME280;44527;47.460;19.016;2022-07-22T15:04:55;100102.41;;;35.93;20.35
58757;BME280;44527;47.460;19.016;2022-07-22T15:07:57;100104.84;;;35.99;20.75
58757;BME280;44527;47.460;19.016;2022-07-22T15:11:00;100095.31;;;35.81;20.86
58757;BME280;44527;47.460;19.016;2022-07-22T15:14:02;100102.19;;;35.63;21.85
58757;BME280;44527;47.460;19.016;2022-07-22T15:17:05;100099.44;;;35.74;21.30
58757;BME280;44527;47.460;19.016;2022-07-22T15:20:07;100092.88;;;35.80;21.31
58757;BME280;44527;47.460;19.016;2022-07-22T15:23:10;100088.78;;;35.82;21.31
58757;BME280;44527;47.460;19.016;2022-07-22T15:26:12;100084.91;;;35.94;20.97
58757;BME280;44527;47.460;19.016;2022-07-22T15:29:14;100085.75;;;36.04;21.46
58757;BME280;44527;47.460;19.016;2022-07-22T15:32:17;100086.28;;;35.96;21.43
58757;BME280;44527;47.460;19.016;2022-07-22T15:35:20;100089.84;;;35.97;21.26
58757;BME280;44527;47.460;19.016;2022-07-22T15:38:22;100089.00;;;35.96;21.26
58757;BME280;44527;47.460;19.016;2022-07-22T15:41:25;100082.19;;;35.99;21.22
58757;BME280;44527;47.460;19.016;2022-07-22T15:44:27;100077.84;;;35.98;21.29
58757;BME280;44527;47.460;19.016;2022-07-22T15:47:30;100076.19;;;35.81;21.91
58757;BME280;44527;47.460;19.016;2022-07-22T15:50:32;100083.06;;;35.74;22.12
58757;BME280;44527;47.460;19.016;2022-07-22T15:53:35;100076.50;;;35.80;21.22
58757;BME280;44527;47.460;19.016;2022-07-22T15:56:37;100081.66;;;35.81;21.25
58757;BME280;44527;47.460;19.016;2022-07-22T15:59:40;100079.78;;;35.82;20.90
58757;BME280;44527;47.460;19.016;2022-07-22T16:02:43;100075.66;;;35.89;21.12